sensor_id;sensor_type;location;lat;lon;timestamp;pressure;altitude;pressure_sealevel;temperature;humidity
20825;BME280;10573;50.936;6.978;2023-09-19T00:01:05;100514.31;;;18.77;64.24
20825;BME280;10573;50.936;6.978;2023-09-19T00:03:32;100513.56;;;18.90;63.80
20825;BME280;10573;50.936;6.978;2023-09-19T00:05:58;100519.25;;;18.82;63.89
20825;BME280;10573;50.936;6.978;2023-09-19T00:08:23;100527.72;;;18.80;64.04
20825;BME280;10573;50.936;6.978;2023-09-19T00:10:48;100527.53;;;18.82;64.14
20825;BME280;10573;50.936;6.978;2023-09-19T00:13:14;100521.28;;;18.66;64.50
20825;BME280;10573;50.936;6.978;2023-09-19T00:15:40;100530.53;;;18.87;64.18
20825;BME280;10573;50.936;6.978;2023-09-19T00:18:06;100527.22;;;18.63;64.49
20825;BME280;10573;50.936;6.978;2023-09-19T00:20:32;100527.84;;;18.65;64.60
20825;BME280;10573;50.936;6.978;2023-09-19T00:22:57;100521.94;;;18.68;64.44
20825;BME280;10573;50.936;6.978;2023-09-19T00:25:24;100524.00;;;18.59;64.48
20825;BME280;10573;50.936;6.978;2023-09-19T00:27:50;100521.69;;;18.63;64.48
20825;BME280;10573;50.936;6.978;2023-09-19T00:30:17;100521.88;;;18.55;64.49
20825;BME280;10573;50.936;6.978;2023-09-19T00:32:49;100538.00;;;18.58;64.34
20825;BME280;10573;50.936;6.978;2023-09-19T00:35:17;100527.41;;;18.61;64.19
20825;BME280;10573;50.936;6.978;2023-09-19T00:37:44;100541.19;;;18.55;63.95
20825;BME280;10573;50.936;6.978;2023-09-19T00:40:09;100534.19;;;18.59;64.00
20825;BME280;10573;50.936;6.978;2023-09-19T00:42:44;100535.66;;;18.55;64.06
20825;BME280;10573;50.936;6.978;2023-09-19T00:45:10;100544.31;;;18.52;64.35
20825;BME280;10573;50.936;6.978;2023-09-19T00:47:37;100540.94;;;18.50;64.21
20825;BME280;10573;50.936;6.978;2023-09-19T00:50:04;100540.16;;;18.63;63.83
20825;BME280;10573;50.936;6.978;2023-09-19T00:52:32;100537.63;;;18.68;63.76
20825;BME280;10573;50.936;6.978;2023-09-19T00:54:57;100547.34;;;18.57;63.98
20825;BME280;10573;50.936;6.978;2023-09-19T00:57:23;100555.44;;;18.65;63.84
20825;BME280;10573;50.936;6.978;2023-09-19T00:59:49;100558.44;;;18.70;63.78
20825;BME280;10573;50.936;6.978;2023-09-19T01:02:18;100551.63;;;18.66;63.77
20825;BME280;10573;50.936;6.978;2023-09-19T01:04:44;100554.16;;;18.61;64.09
20825;BME280;10573;50.936;6.978;2023-09-19T01:07:09;100563.53;;;18.67;63.88
20825;BME280;10573;50.936;6.978;2023-09-19T01:09:35;100565.59;;;18.58;63.86
20825;BME280;10573;50.936;6.978;2023-09-19T01:12:02;100565.19;;;18.61;64.13
20825;BME280;10573;50.936;6.978;2023-09-19T01:14:34;100564.13;;;18.62;63.68
20825;BME280;10573;50.936;6.978;2023-09-19T01:17:04;100560.19;;;18.78;63.19
20825;BME280;10573;50.936;6.978;2023-09-19T01:29:38;100578.19;;;18.67;63.12
20825;BME280;10573;50.936;6.978;2023-09-19T01:32:05;100588.28;;;18.53;63.28
20825;BME280;10573;50.936;6.978;2023-09-19T01:34:46;100580.13;;;18.45;63.43
20825;BME280;10573;50.936;6.978;2023-09-19T01:37:12;100574.81;;;18.78;62.79
20825;BME280;10573;50.936;6.978;2023-09-19T01:39:38;100576.50;;;18.73;63.01
20825;BME280;10573;50.936;6.978;2023-09-19T01:44:52;100584.56;;;18.74;62.80
20825;BME280;10573;50.936;6.978;2023-09-19T01:47:26;100583.81;;;18.52;63.00
20825;BME280;10573;50.936;6.978;2023-09-19T01:49:59;100599.13;;;18.55;63.06
20825;BME280;10573;50.936;6.978;2023-09-19T01:52:28;100600.16;;;18.54;63.17
20825;BME280;10573;50.936;6.978;2023-09-19T01:54:59;100598.66;;;18.51;63.14
20825;BME280;10573;50.936;6.978;2023-09-19T02:00:17;100610.44;;;18.38;63.26
20825;BME280;10573;50.936;6.978;2023-09-19T02:02:46;100604.91;;;18.38;62.53
20825;BME280;10573;50.936;6.978;2023-09-19T02:05:12;100611.88;;;18.34;62.58
20825;BME280;10573;50.936;6.978;2023-09-19T02:07:38;100607.94;;;18.43;62.66
20825;BME280;10573;50.936;6.978;2023-09-19T02:10:04;100606.72;;;18.53;62.26
20825;BME280;10573;50.936;6.978;2023-09-19T02:12:30;100608.13;;;18.42;62.27
20825;BME280;10573;50.936;6.978;2023-09-19T02:14:57;100607.94;;;18.43;61.70
20825;BME280;10573;50.936;6.978;2023-09-19T02:17:24;100613.75;;;18.55;61.66
20825;BME280;10573;50.936;6.978;2023-09-19T02:19:55;100625.88;;;18.61;61.56
20825;BME280;10573;50.936;6.978;2023-09-19T02:22:21;100627.75;;;18.54;61.94
20825;BME280;10573;50.936;6.978;2023-09-19T02:24:46;100630.00;;;18.43;62.25
20825;BME280;10573;50.936;6.978;2023-09-19T02:27:13;100626.97;;;18.38;62.48
20825;BME280;10573;50.936;6.978;2023-09-19T02:29:40;100638.09;;;18.23;62.35
20825;BME280;10573;50.936;6.978;2023-09-19T02:32:05;100629.78;;;18.17;62.40
20825;BME280;10573;50.936;6.978;2023-09-19T02:34:31;100631.94;;;18.21;62.04
20825;BME280;10573;50.936;6.978;2023-09-19T02:36:57;100638.31;;;18.22;61.95
20825;BME280;10573;50.936;6.978;2023-09-19T02:39:22;100638.78;;;18.04;62.41
20825;BME280;10573;50.936;6.978;2023-09-19T02:41:49;100644.88;;;17.99;62.59
20825;BME280;10573;50.936;6.978;2023-09-19T02:44:14;100635.19;;;17.88;62.93
20825;BME280;10573;50.936;6.978;2023-09-19T02:46:39;100640.03;;;18.01;62.93
20825;BME280;10573;50.936;6.978;2023-09-19T02:49:05;100644.34;;;17.89;63.11
20825;BME280;10573;50.936;6.978;2023-09-19T02:51:31;100646.91;;;17.90;63.03
20825;BME280;10573;50.936;6.978;2023-09-19T02:53:57;100643.88;;;17.85;63.22
20825;BME280;10573;50.936;6.978;2023-09-19T02:56:22;100651.03;;;17.80;63.00
20825;BME280;10573;50.936;6.978;2023-09-19T02:58:49;100645.88;;;17.76;63.18
20825;BME280;10573;50.936;6.978;2023-09-19T03:01:14;100643.81;;;17.78;63.13
20825;BME280;10573;50.936;6.978;2023-09-19T03:03:39;100655.72;;;17.64;63.63
20825;BME280;10573;50.936;6.978;2023-09-19T03:06:06;100652.66;;;17.74;63.40
20825;BME280;10573;50.936;6.978;2023-09-19T03:08:33;100646.53;;;17.57;63.68
20825;BME280;10573;50.936;6.978;2023-09-19T03:11:00;100658.41;;;17.57;63.87
20825;BME280;10573;50.936;6.978;2023-09-19T03:13:27;100656.84;;;17.70;63.44
20825;BME280;10573;50.936;6.978;2023-09-19T03:15:54;100658.88;;;17.61;63.90
20825;BME280;10573;50.936;6.978;2023-09-19T03:18:21;100664.78;;;17.58;63.85
20825;BME280;10573;50.936;6.978;2023-09-19T03:20:53;100671.00;;;17.67;63.74
20825;BME280;10573;50.936;6.978;2023-09-19T03:23:20;100668.28;;;17.52;64.17
20825;BME280;10573;50.936;6.978;2023-09-19T03:25:45;100662.09;;;17.50;64.34
20825;BME280;10573;50.936;6.978;2023-09-19T03:28:10;100666.13;;;17.47;64.37
20825;BME280;10573;50.936;6.978;2023-09-19T03:30:35;100673.44;;;17.40;64.44
20825;BME280;10573;50.936;6.978;2023-09-19T03:33:01;100669.38;;;17.36;64.75
20825;BME280;10573;50.936;6.978;2023-09-19T03:35:26;100676.28;;;17.47;64.31
20825;BME280;10573;50.936;6.978;2023-09-19T03:37:51;100676.47;;;17.45;64.44
20825;BME280;10573;50.936;6.978;2023-09-19T03:40:17;100670.94;;;17.60;64.09
20825;BME280;10573;50.936;6.978;2023-09-19T03:42:45;100668.72;;;17.70;63.79
20825;BME280;10573;50.936;6.978;2023-09-19T03:45:11;100656.59;;;17.50;64.08
20825;BME280;10573;50.936;6.978;2023-09-19T03:47:41;100666.16;;;17.69;63.70
20825;BME280;10573;50.936;6.978;2023-09-19T03:50:06;100661.66;;;17.46;64.27
20825;BME280;10573;50.936;6.978;2023-09-19T03:52:36;100662.31;;;17.48;64.45
20825;BME280;10573;50.936;6.978;2023-09-19T03:55:01;100670.03;;;17.38;64.36
20825;BME280;10573;50.936;6.978;2023-09-19T03:57:29;100676.34;;;17.53;64.23
20825;BME280;10573;50.936;6.978;2023-09-19T03:59:55;100669.94;;;17.31;64.63
20825;BME280;10573;50.936;6.978;2023-09-19T04:02:21;100667.44;;;17.36;64.61
20825;BME280;10573;50.936;6.978;2023-09-19T04:04:50;100663.91;;;17.57;64.01
20825;BME280;10573;50.936;6.978;2023-09-19T04:07:15;100656.88;;;17.55;64.19
20825;BME280;10573;50.936;6.978;2023-09-19T04:09:41;100661.75;;;17.53;63.99
20825;BME280;10573;50.936;6.978;2023-09-19T04:12:07;100659.09;;;17.44;64.23
20825;BME280;10573;50.936;6.978;2023-09-19T04:14:34;100669.41;;;17.57;63.91
20825;BME280;10573;50.936;6.978;2023-09-19T04:16:59;100659.66;;;17.40;64.38
20825;BME280;10573;50.936;6.978;2023-09-19T04:19:25;100661.88;;;17.44;64.13
20825;BME280;10573;50.936;6.978;2023-09-19T04:21:50;100670.84;;;17.53;64.13
20825;BME280;10573;50.936;6.978;2023-09-19T04:24:16;100673.47;;;17.25;64.22
20825;BME280;10573;50.936;6.978;2023-09-19T04:26:41;100671.63;;;17.32;63.77
20825;BME280;10573;50.936;6.978;2023-09-19T04:29:07;100660.78;;;17.45;63.22
20825;BME280;10573;50.936;6.978;2023-09-19T04:31:36;100667.16;;;17.46;63.21
20825;BME280;10573;50.936;6.978;2023-09-19T04:34:05;100659.56;;;17.48;63.06
20825;BME280;10573;50.936;6.978;2023-09-19T04:36:30;100662.41;;;17.40;62.74
20825;BME280;10573;50.936;6.978;2023-09-19T04:38:56;100665.84;;;17.42;63.04
20825;BME280;10573;50.936;6.978;2023-09-19T04:41:21;100665.94;;;17.49;62.10
20825;BME280;10573;50.936;6.978;2023-09-19T04:43:47;100671.38;;;17.42;61.69
20825;BME280;10573;50.936;6.978;2023-09-19T04:46:13;100676.56;;;17.52;61.21
20825;BME280;10573;50.936;6.978;2023-09-19T04:48:39;100686.94;;;17.35;61.12
20825;BME280;10573;50.936;6.978;2023-09-19T04:51:05;100679.16;;;17.23;60.70
20825;BME280;10573;50.936;6.978;2023-09-19T04:53:30;100672.97;;;17.36;60.31
20825;BME280;10573;50.936;6.978;2023-09-19T04:55:55;100679.34;;;17.37;59.97
20825;BME280;10573;50.936;6.978;2023-09-19T04:58:22;100688.84;;;17.34;60.13
20825;BME280;10573;50.936;6.978;2023-09-19T05:00:47;100694.63;;;17.39;59.74
20825;BME280;10573;50.936;6.978;2023-09-19T05:03:12;100693.41;;;17.42;59.66
20825;BME280;10573;50.936;6.978;2023-09-19T05:05:38;100687.03;;;17.26;59.83
20825;BME280;10573;50.936;6.978;2023-09-19T05:08:04;100696.81;;;17.29;59.88
20825;BME280;10573;50.936;6.978;2023-09-19T05:10:30;100690.31;;;17.52;59.33
20825;BME280;10573;50.936;6.978;2023-09-19T05:12:56;100697.56;;;17.53;59.37
20825;BME280;10573;50.936;6.978;2023-09-19T05:15:21;100704.78;;;17.39;59.58
20825;BME280;10573;50.936;6.978;2023-09-19T05:17:49;100712.47;;;17.43;60.00
20825;BME280;10573;50.936;6.978;2023-09-19T05:20:16;100695.16;;;17.50;59.35
20825;BME280;10573;50.936;6.978;2023-09-19T05:22:42;100701.84;;;17.40;59.48
20825;BME280;10573;50.936;6.978;2023-09-19T05:25:08;100712.75;;;17.19;60.13
20825;BME280;10573;50.936;6.978;2023-09-19T05:27:33;100713.53;;;17.13;60.05
20825;BME280;10573;50.936;6.978;2023-09-19T05:29:59;100717.91;;;17.37;60.14
20825;BME280;10573;50.936;6.978;2023-09-19T05:32:24;100722.72;;;17.50;59.63
20825;BME280;10573;50.936;6.978;2023-09-19T05:34:49;100732.03;;;17.49;59.53
20825;BME280;10573;50.936;6.978;2023-09-19T05:37:18;100740.00;;;17.43;59.42
20825;BME280;10573;50.936;6.978;2023-09-19T05:39:43;100740.94;;;17.51;59.48
20825;BME280;10573;50.936;6.978;2023-09-19T05:42:09;100741.63;;;17.53;59.16
20825;BME280;10573;50.936;6.978;2023-09-19T05:44:34;100740.47;;;17.62;59.21
20825;BME280;10573;50.936;6.978;2023-09-19T05:47:02;100755.13;;;17.48;59.85
20825;BME280;10573;50.936;6.978;2023-09-19T05:49:28;100760.81;;;17.61;59.74
20825;BME280;10573;50.936;6.978;2023-09-19T05:51:53;100761.94;;;17.67;59.94
20825;BME280;10573;50.936;6.978;2023-09-19T05:54:20;100755.47;;;17.74;58.81
20825;BME280;10573;50.936;6.978;2023-09-19T05:56:45;100758.88;;;17.61;58.65
20825;BME280;10573;50.936;6.978;2023-09-19T05:59:12;100755.84;;;17.71;58.18
20825;BME280;10573;50.936;6.978;2023-09-19T06:01:40;100765.66;;;17.74;58.25
20825;BME280;10573;50.936;6.978;2023-09-19T06:04:05;100771.81;;;17.76;58.01
20825;BME280;10573;50.936;6.978;2023-09-19T06:06:31;100769.16;;;17.68;57.99
20825;BME280;10573;50.936;6.978;2023-09-19T06:08:58;100779.50;;;17.66;58.45
20825;BME280;10573;50.936;6.978;2023-09-19T06:11:24;100787.38;;;17.39;59.54
20825;BME280;10573;50.936;6.978;2023-09-19T06:13:51;100784.94;;;17.44;59.08
20825;BME280;10573;50.936;6.978;2023-09-19T06:16:18;100794.41;;;17.41;59.25
20825;BME280;10573;50.936;6.978;2023-09-19T06:18:44;100791.47;;;17.43;59.49
20825;BME280;10573;50.936;6.978;2023-09-19T06:21:10;100795.84;;;17.52;59.43
20825;BME280;10573;50.936;6.978;2023-09-19T06:23:36;100794.06;;;17.44;59.83
20825;BME280;10573;50.936;6.978;2023-09-19T06:26:01;100806.78;;;17.60;58.99
20825;BME280;10573;50.936;6.978;2023-09-19T06:28:27;100807.50;;;17.84;58.64
20825;BME280;10573;50.936;6.978;2023-09-19T06:30:54;100806.22;;;17.65;58.90
20825;BME280;10573;50.936;6.978;2023-09-19T06:33:19;100802.19;;;17.83;58.68
20825;BME280;10573;50.936;6.978;2023-09-19T06:35:46;100813.53;;;17.73;59.28
20825;BME280;10573;50.936;6.978;2023-09-19T06:38:12;100806.66;;;17.84;59.35
20825;BME280;10573;50.936;6.978;2023-09-19T06:40:38;100815.22;;;17.89;59.34
20825;BME280;10573;50.936;6.978;2023-09-19T06:43:03;100808.59;;;17.98;59.21
20825;BME280;10573;50.936;6.978;2023-09-19T06:45:30;100806.41;;;17.93;57.85
20825;BME280;10573;50.936;6.978;2023-09-19T06:47:56;100813.13;;;17.91;58.22
20825;BME280;10573;50.936;6.978;2023-09-19T06:50:23;100813.47;;;18.18;58.24
20825;BME280;10573;50.936;6.978;2023-09-19T06:52:52;100815.84;;;18.21;57.97
20825;BME280;10573;50.936;6.978;2023-09-19T06:55:19;100807.72;;;18.34;57.13
20825;BME280;10573;50.936;6.978;2023-09-19T06:57:45;100808.84;;;18.03;57.21
20825;BME280;10573;50.936;6.978;2023-09-19T07:00:11;100810.31;;;18.21;57.51
20825;BME280;10573;50.936;6.978;2023-09-19T07:03:00;100815.97;;;18.13;57.38
20825;BME280;10573;50.936;6.978;2023-09-19T07:05:29;100815.06;;;18.27;57.44
20825;BME280;10573;50.936;6.978;2023-09-19T07:07:56;100827.53;;;18.23;58.20
20825;BME280;10573;50.936;6.978;2023-09-19T07:10:26;100816.66;;;18.36;57.98
20825;BME280;10573;50.936;6.978;2023-09-19T07:15:26;100807.09;;;18.54;56.57
20825;BME280;10573;50.936;6.978;2023-09-19T07:17:52;100810.50;;;18.56;57.09
20825;BME280;10573;50.936;6.978;2023-09-19T07:20:21;100816.28;;;18.61;56.97
20825;BME280;10573;50.936;6.978;2023-09-19T07:22:46;100814.66;;;18.67;56.39
20825;BME280;10573;50.936;6.978;2023-09-19T07:25:13;100813.63;;;18.74;56.15
20825;BME280;10573;50.936;6.978;2023-09-19T07:27:39;100808.19;;;18.81;55.71
20825;BME280;10573;50.936;6.978;2023-09-19T07:30:05;100813.84;;;18.94;55.53
20825;BME280;10573;50.936;6.978;2023-09-19T07:32:30;100804.47;;;18.89;55.99
20825;BME280;10573;50.936;6.978;2023-09-19T07:34:56;100815.28;;;19.12;55.51
20825;BME280;10573;50.936;6.978;2023-09-19T07:37:21;100822.56;;;19.20;55.14
20825;BME280;10573;50.936;6.978;2023-09-19T07:39:46;100822.97;;;19.17;55.15
20825;BME280;10573;50.936;6.978;2023-09-19T07:42:12;100822.72;;;19.40;54.49
20825;BME280;10573;50.936;6.978;2023-09-19T07:44:42;100827.91;;;19.56;53.74
20825;BME280;10573;50.936;6.978;2023-09-19T07:47:08;100825.44;;;19.68;53.39
20825;BME280;10573;50.936;6.978;2023-09-19T07:49:33;100818.59;;;19.64;52.74
20825;BME280;10573;50.936;6.978;2023-09-19T07:51:59;100819.72;;;19.76;52.78
20825;BME280;10573;50.936;6.978;2023-09-19T07:54:24;100814.19;;;20.11;52.05
20825;BME280;10573;50.936;6.978;2023-09-19T07:56:49;100815.31;;;20.24;51.22
20825;BME280;10573;50.936;6.978;2023-09-19T07:59:15;100810.44;;;20.46;50.62
20825;BME280;10573;50.936;6.978;2023-09-19T08:01:41;100807.06;;;20.51;50.42
20825;BME280;10573;50.936;6.978;2023-09-19T08:04:07;100815.22;;;20.72;50.52
20825;BME280;10573;50.936;6.978;2023-09-19T08:06:32;100816.06;;;20.73;49.66
20825;BME280;10573;50.936;6.978;2023-09-19T08:08:57;100823.69;;;20.51;50.11
20825;BME280;10573;50.936;6.978;2023-09-19T08:11:26;100815.19;;;20.59;50.03
20825;BME280;10573;50.936;6.978;2023-09-19T08:13:51;100820.13;;;20.97;50.09
20825;BME280;10573;50.936;6.978;2023-09-19T08:16:17;100818.19;;;21.24;48.99
20825;BME280;10573;50.936;6.978;2023-09-19T08:18:47;100805.63;;;21.42;48.64
20825;BME280;10573;50.936;6.978;2023-09-19T08:21:13;100808.59;;;21.40;48.48
20825;BME280;10573;50.936;6.978;2023-09-19T08:23:39;100809.03;;;21.57;48.13
20825;BME280;10573;50.936;6.978;2023-09-19T08:26:05;100809.66;;;21.66;48.26
20825;BME280;10573;50.936;6.978;2023-09-19T08:28:36;100795.06;;;21.91;47.11
20825;BME280;10573;50.936;6.978;2023-09-19T08:31:05;100799.66;;;22.10;46.83
20825;BME280;10573;50.936;6.978;2023-09-19T08:33:34;100804.06;;;22.25;46.32
20825;BME280;10573;50.936;6.978;2023-09-19T08:36:00;100805.31;;;22.29;46.17
20825;BME280;10573;50.936;6.978;2023-09-19T08:38:25;100802.72;;;22.73;45.79
20825;BME280;10573;50.936;6.978;2023-09-19T08:40:57;100796.16;;;22.67;45.25
20825;BME280;10573;50.936;6.978;2023-09-19T08:43:24;100793.78;;;22.96;45.00
20825;BME280;10573;50.936;6.978;2023-09-19T08:45:50;100803.66;;;22.92;44.30
20825;BME280;10573;50.936;6.978;2023-09-19T08:48:27;100806.41;;;21.83;46.08
20825;BME280;10573;50.936;6.978;2023-09-19T08:51:02;100824.16;;;21.55;46.97
20825;BME280;10573;50.936;6.978;2023-09-19T08:53:42;100804.00;;;21.93;45.92
20825;BME280;10573;50.936;6.978;2023-09-19T08:56:12;100818.16;;;21.65;46.54
20825;BME280;10573;50.936;6.978;2023-09-19T08:58:44;100815.22;;;22.11;45.69
20825;BME280;10573;50.936;6.978;2023-09-19T09:01:12;100815.25;;;21.19;47.15
20825;BME280;10573;50.936;6.978;2023-09-19T09:03:39;100812.69;;;20.91;47.87
20825;BME280;10573;50.936;6.978;2023-09-19T09:06:06;100815.66;;;21.09;47.74
20825;BME280;10573;50.936;6.978;2023-09-19T09:08:32;100809.88;;;21.18;47.61
20825;BME280;10573;50.936;6.978;2023-09-19T09:10:58;100821.84;;;21.25;47.43
20825;BME280;10573;50.936;6.978;2023-09-19T09:13:24;100813.97;;;21.22;47.32
20825;BME280;10573;50.936;6.978;2023-09-19T09:15:51;100816.31;;;21.11;47.18
20825;BME280;10573;50.936;6.978;2023-09-19T09:18:16;100810.09;;;21.09;47.42
20825;BME280;10573;50.936;6.978;2023-09-19T09:20:43;100814.81;;;20.89;47.12
20825;BME280;10573;50.936;6.978;2023-09-19T09:23:09;100816.53;;;20.90;46.79
20825;BME280;10573;50.936;6.978;2023-09-19T09:25:47;100819.69;;;20.93;47.54
20825;BME280;10573;50.936;6.978;2023-09-19T09:28:18;100812.47;;;20.72;47.02
20825;BME280;10573;50.936;6.978;2023-09-19T09:30:44;100812.69;;;20.98;46.80
20825;BME280;10573;50.936;6.978;2023-09-19T09:33:10;100818.25;;;21.04;46.66
20825;BME280;10573;50.936;6.978;2023-09-19T09:35:36;100798.63;;;20.99;46.22
20825;BME280;10573;50.936;6.978;2023-09-19T09:38:02;100795.84;;;21.26;46.17
20825;BME280;10573;50.936;6.978;2023-09-19T09:40:46;100792.00;;;21.07;46.31
20825;BME280;10573;50.936;6.978;2023-09-19T09:46:12;100789.22;;;21.00;46.66
20825;BME280;10573;50.936;6.978;2023-09-19T09:49:03;100787.53;;;21.06;46.02
20825;BME280;10573;50.936;6.978;2023-09-19T09:52:17;100792.84;;;21.27;45.24
20825;BME280;10573;50.936;6.978;2023-09-19T09:54:58;100781.53;;;21.42;44.87
20825;BME280;10573;50.936;6.978;2023-09-19T09:57:23;100786.53;;;21.86;45.08
20825;BME280;10573;50.936;6.978;2023-09-19T09:59:54;100794.72;;;21.54;44.23
20825;BME280;10573;50.936;6.978;2023-09-19T10:02:27;100799.00;;;21.36;44.51
20825;BME280;10573;50.936;6.978;2023-09-19T10:05:14;100781.56;;;21.16;45.43
20825;BME280;10573;50.936;6.978;2023-09-19T10:08:10;100790.91;;;21.55;45.35
20825;BME280;10573;50.936;6.978;2023-09-19T10:10:39;100788.13;;;21.41;44.86
20825;BME280;10573;50.936;6.978;2023-09-19T10:13:05;100783.59;;;21.67;44.32
20825;BME280;10573;50.936;6.978;2023-09-19T10:15:32;100777.00;;;21.68;44.51
20825;BME280;10573;50.936;6.978;2023-09-19T10:18:00;100781.09;;;21.39;44.45
20825;BME280;10573;50.936;6.978;2023-09-19T10:20:26;100770.16;;;21.71;44.34
20825;BME280;10573;50.936;6.978;2023-09-19T10:22:55;100768.13;;;21.98;44.18
20825;BME280;10573;50.936;6.978;2023-09-19T10:25:25;100774.47;;;21.60;44.24
20825;BME280;10573;50.936;6.978;2023-09-19T10:27:50;100758.03;;;21.52;44.38
20825;BME280;10573;50.936;6.978;2023-09-19T10:30:18;100760.09;;;21.76;44.10
20825;BME280;10573;50.936;6.978;2023-09-19T10:32:45;100745.44;;;21.69;44.10
20825;BME280;10573;50.936;6.978;2023-09-19T10:35:14;100765.25;;;21.79;43.86
20825;BME280;10573;50.936;6.978;2023-09-19T10:37:39;100760.91;;;21.97;44.16
20825;BME280;10573;50.936;6.978;2023-09-19T10:40:06;100755.41;;;21.84;43.89
20825;BME280;10573;50.936;6.978;2023-09-19T10:42:33;100755.22;;;21.78;44.13
20825;BME280;10573;50.936;6.978;2023-09-19T10:45:03;100751.53;;;21.85;44.10
20825;BME280;10573;50.936;6.978;2023-09-19T10:47:32;100758.50;;;22.01;43.97
20825;BME280;10573;50.936;6.978;2023-09-19T10:49:57;100754.28;;;21.91;43.70
20825;BME280;10573;50.936;6.978;2023-09-19T10:52:23;100748.94;;;21.96;43.50
20825;BME280;10573;50.936;6.978;2023-09-19T10:54:52;100750.00;;;22.34;43.31
20825;BME280;10573;50.936;6.978;2023-09-19T10:57:23;100750.28;;;22.58;42.29
20825;BME280;10573;50.936;6.978;2023-09-19T11:00:07;100740.75;;;22.47;41.92
20825;BME280;10573;50.936;6.978;2023-09-19T11:05:35;100733.28;;;22.48;42.24
20825;BME280;10573;50.936;6.978;2023-09-19T11:08:05;100747.69;;;22.63;42.15
20825;BME280;10573;50.936;6.978;2023-09-19T11:10:48;100747.88;;;22.68;41.96
20825;BME280;10573;50.936;6.978;2023-09-19T11:26:44;100744.22;;;22.93;40.56
20825;BME280;10573;50.936;6.978;2023-09-19T11:29:25;100725.97;;;22.78;39.77
20825;BME280;10573;50.936;6.978;2023-09-19T11:31:50;100733.34;;;23.17;40.24
20825;BME280;10573;50.936;6.978;2023-09-19T11:37:00;100721.31;;;23.41;38.83
20825;BME280;10573;50.936;6.978;2023-09-19T11:39:26;100723.03;;;23.42;38.31
20825;BME280;10573;50.936;6.978;2023-09-19T11:41:52;100729.75;;;23.09;39.41
20825;BME280;10573;50.936;6.978;2023-09-19T11:46:55;100731.66;;;22.90;40.00
20825;BME280;10573;50.936;6.978;2023-09-19T11:49:26;100735.44;;;22.96;40.11
20825;BME280;10573;50.936;6.978;2023-09-19T11:51:55;100739.75;;;23.17;39.66
20825;BME280;10573;50.936;6.978;2023-09-19T11:54:20;100733.81;;;23.69;39.00
20825;BME280;10573;50.936;6.978;2023-09-19T11:56:53;100730.75;;;24.38;38.68
20825;BME280;10573;50.936;6.978;2023-09-19T11:59:22;100728.19;;;24.91;36.39
20825;BME280;10573;50.936;6.978;2023-09-19T12:01:52;100714.84;;;25.52;34.93
20825;BME280;10573;50.936;6.978;2023-09-19T12:04:31;100709.38;;;26.27;33.31
20825;BME280;10573;50.936;6.978;2023-09-19T12:06:58;100714.13;;;26.43;32.59
20825;BME280;10573;50.936;6.978;2023-09-19T12:09:24;100711.72;;;26.98;31.21
20825;BME280;10573;50.936;6.978;2023-09-19T12:11:50;100711.34;;;27.73;30.75
20825;BME280;10573;50.936;6.978;2023-09-19T12:14:23;100716.06;;;27.94;29.61
20825;BME280;10573;50.936;6.978;2023-09-19T12:16:56;100726.78;;;27.53;30.41
20825;BME280;10573;50.936;6.978;2023-09-19T12:19:22;100729.50;;;27.92;29.70
20825;BME280;10573;50.936;6.978;2023-09-19T12:22:01;100723.03;;;28.41;29.03
20825;BME280;10573;50.936;6.978;2023-09-19T12:24:30;100712.13;;;28.72;28.77
20825;BME280;10573;50.936;6.978;2023-09-19T12:27:04;100715.41;;;28.64;28.29
20825;BME280;10573;50.936;6.978;2023-09-19T12:29:30;100713.78;;;28.41;28.81
20825;BME280;10573;50.936;6.978;2023-09-19T12:31:57;100708.56;;;28.87;27.76
20825;BME280;10573;50.936;6.978;2023-09-19T12:34:29;100712.63;;;28.64;28.19
20825;BME280;10573;50.936;6.978;2023-09-19T12:37:04;100710.28;;;28.88;28.30
20825;BME280;10573;50.936;6.978;2023-09-19T12:39:46;100708.13;;;29.01;27.94
20825;BME280;10573;50.936;6.978;2023-09-19T12:42:23;100705.56;;;29.95;27.32
20825;BME280;10573;50.936;6.978;2023-09-19T12:44:49;100708.97;;;29.01;28.09
20825;BME280;10573;50.936;6.978;2023-09-19T12:47:20;100719.00;;;28.59;28.04
20825;BME280;10573;50.936;6.978;2023-09-19T12:52:37;100691.00;;;28.97;28.01
20825;BME280;10573;50.936;6.978;2023-09-19T12:55:03;100706.59;;;28.83;28.03
20825;BME280;10573;50.936;6.978;2023-09-19T12:57:30;100684.75;;;29.96;27.74
20825;BME280;10573;50.936;6.978;2023-09-19T12:59:57;100690.84;;;29.83;27.08
20825;BME280;10573;50.936;6.978;2023-09-19T13:02:22;100713.47;;;29.50;27.01
20825;BME280;10573;50.936;6.978;2023-09-19T13:04:54;100695.50;;;28.98;27.62
20825;BME280;10573;50.936;6.978;2023-09-19T13:07:40;100702.94;;;27.95;29.29
20825;BME280;10573;50.936;6.978;2023-09-19T13:10:08;100700.00;;;27.85;29.41
20825;BME280;10573;50.936;6.978;2023-09-19T13:12:35;100683.09;;;28.94;29.37
20825;BME280;10573;50.936;6.978;2023-09-19T13:15:11;100688.41;;;29.28;27.97
20825;BME280;10573;50.936;6.978;2023-09-19T13:17:46;100680.50;;;29.25;28.08
20825;BME280;10573;50.936;6.978;2023-09-19T13:20:26;100682.97;;;28.73;28.24
20825;BME280;10573;50.936;6.978;2023-09-19T13:22:57;100683.06;;;28.84;28.65
20825;BME280;10573;50.936;6.978;2023-09-19T13:25:33;100704.69;;;26.95;30.84
20825;BME280;10573;50.936;6.978;2023-09-19T13:28:00;100685.41;;;26.99;30.97
20825;BME280;10573;50.936;6.978;2023-09-19T13:30:29;100685.22;;;27.23;31.26
20825;BME280;10573;50.936;6.978;2023-09-19T13:33:05;100683.00;;;28.13;30.99
20825;BME280;10573;50.936;6.978;2023-09-19T13:35:35;100680.94;;;28.36;30.73
20825;BME280;10573;50.936;6.978;2023-09-19T13:38:03;100689.75;;;28.18;31.23
20825;BME280;10573;50.936;6.978;2023-09-19T13:40:29;100694.34;;;28.29;30.76